createdAt,value
2018-06-21T00:03:09.164Z,21.40
2018-06-21T00:08:03.698Z,21.37
2018-06-21T00:12:58.775Z,21.30
2018-06-21T00:17:53.324Z,21.25
2018-06-21T00:22:47.923Z,21.19
2018-06-21T00:27:42.526Z,21.15
2018-06-21T00:32:37.468Z,21.12
2018-06-21T00:37:32.117Z,21.12
2018-06-21T00:42:26.853Z,21.00
2018-06-21T00:47:21.432Z,20.94
2018-06-21T00:52:15.970Z,20.88
2018-06-21T00:57:10.476Z,20.81
2018-06-21T01:02:04.945Z,20.76
2018-06-21T01:06:59.434Z,20.68
2018-06-21T01:11:53.885Z,20.61
2018-06-21T01:16:48.430Z,20.58
2018-06-21T01:21:42.953Z,20.43
2018-06-21T01:26:37.483Z,20.44
2018-06-21T01:31:31.986Z,20.40
2018-06-21T01:36:26.589Z,20.38
2018-06-21T01:41:21.097Z,20.47
2018-06-21T01:46:15.561Z,20.35
2018-06-21T01:51:09.989Z,20.12
2018-06-21T01:56:04.532Z,20.09
2018-06-21T02:00:59.129Z,20.08
2018-06-21T02:05:53.598Z,19.99
2018-06-21T02:10:48.069Z,19.86
2018-06-21T02:15:42.545Z,19.79
2018-06-21T02:20:37.020Z,19.77
2018-06-21T02:25:31.624Z,19.76
2018-06-21T02:30:26.086Z,19.72
2018-06-21T02:35:20.545Z,19.67
2018-06-21T02:40:15.056Z,19.64
2018-06-21T02:45:09.571Z,19.58
2018-06-21T02:50:04.163Z,19.55
2018-06-21T02:54:58.646Z,19.52
2018-06-21T02:59:53.161Z,19.48
2018-06-21T03:04:47.605Z,19.46
2018-06-21T03:09:42.052Z,19.47
2018-06-21T03:14:36.508Z,19.44
2018-06-21T03:19:30.976Z,19.42
2018-06-21T03:24:25.765Z,19.43
2018-06-21T03:29:19.950Z,19.42
2018-06-21T03:34:14.418Z,19.43
2018-06-21T03:39:08.965Z,19.45
2018-06-21T03:44:03.388Z,19.50
2018-06-21T03:48:57.891Z,19.62
2018-06-21T03:53:52.468Z,19.78
2018-06-21T03:58:47.088Z,20.83
2018-06-21T04:03:41.821Z,21.84
2018-06-21T04:08:36.293Z,22.83
2018-06-21T04:13:30.812Z,23.80
2018-06-21T04:18:29.540Z,24.34
2018-06-21T04:23:24.107Z,25.02
2018-06-21T04:28:18.590Z,26.17
2018-06-21T04:33:13.163Z,27.48
2018-06-21T04:38:07.677Z,28.20
2018-06-21T04:43:02.180Z,28.92
2018-06-21T04:47:56.629Z,29.69
2018-06-21T04:52:51.097Z,30.10
2018-06-21T04:57:45.573Z,30.90
2018-06-21T05:02:40.007Z,31.14
2018-06-21T05:07:34.480Z,31.24
2018-06-21T05:12:28.998Z,31.35
2018-06-21T05:17:23.709Z,30.07
2018-06-21T05:22:18.165Z,29.55
2018-06-21T05:27:12.730Z,30.04
2018-06-21T05:32:07.261Z,30.06
2018-06-21T05:37:01.731Z,31.40
2018-06-21T05:41:56.534Z,30.97
2018-06-21T05:46:50.952Z,31.08
2018-06-21T05:51:45.660Z,31.27
2018-06-21T05:56:40.156Z,31.48
2018-06-21T06:01:35.771Z,31.50
2018-06-21T06:06:31.074Z,31.67
2018-06-21T06:11:26.583Z,32.06
2018-06-21T06:16:21.211Z,31.99
2018-06-21T06:21:16.002Z,31.50
2018-06-21T06:26:11.576Z,29.73
2018-06-21T06:31:07.078Z,28.49
2018-06-21T06:36:01.855Z,27.66
2018-06-21T06:40:57.192Z,27.22
2018-06-21T06:55:03.436Z,27.84
2018-06-21T06:59:58.199Z,28.19
2018-06-21T07:04:53.366Z,28.29
2018-06-21T07:09:47.857Z,27.96
2018-06-21T07:14:42.864Z,28.51
2018-06-21T07:19:38.481Z,28.31
2018-06-21T07:24:33.248Z,27.50
2018-06-21T07:29:27.708Z,27.66
2018-06-21T07:34:22.558Z,28.48
2018-06-21T07:39:17.132Z,28.93
2018-06-21T07:44:12.253Z,29.09
2018-06-21T07:49:06.884Z,28.78
2018-06-21T07:54:01.430Z,28.46
2018-06-21T07:58:55.995Z,28.24
2018-06-21T08:03:57.312Z,28.37
2018-06-21T08:08:55.249Z,28.76
2018-06-21T08:13:50.019Z,28.93
2018-06-21T08:18:55.026Z,29.00
2018-06-21T08:23:50.057Z,28.76
2018-06-21T08:28:44.747Z,28.93
2018-06-21T08:33:39.693Z,29.29
2018-06-21T08:38:35.090Z,29.47
2018-06-21T08:43:29.575Z,29.36
2018-06-21T08:48:24.042Z,29.23
2018-06-21T08:53:18.581Z,29.38
2018-06-21T08:58:25.421Z,29.25
2018-06-21T09:03:22.225Z,28.90
2018-06-21T09:08:17.437Z,28.60
2018-06-21T09:13:11.975Z,28.70
2018-06-21T09:18:15.604Z,28.98
2018-06-21T09:23:10.500Z,29.05
2018-06-21T09:28:05.320Z,29.22
2018-06-21T09:32:59.888Z,29.20
2018-06-21T09:37:59.712Z,29.22
2018-06-21T09:42:59.652Z,29.92
2018-06-21T09:47:59.529Z,29.57
2018-06-21T09:52:54.037Z,29.69
2018-06-21T09:57:48.491Z,29.35
2018-06-21T10:02:45.777Z,29.89
2018-06-21T10:07:51.459Z,30.06
2018-06-21T10:12:48.496Z,30.02
2018-06-21T10:17:43.337Z,30.45
2018-06-21T10:22:37.815Z,30.48
2018-06-21T10:27:32.246Z,30.80
2018-06-21T10:32:26.730Z,30.73
2018-06-21T10:37:21.135Z,31.07
2018-06-21T10:42:21.625Z,30.89
2018-06-21T10:47:16.508Z,30.71
2018-06-21T10:52:11.050Z,30.99
2018-06-21T10:57:06.897Z,30.98
2018-06-21T11:02:01.471Z,31.13
2018-06-21T11:06:55.623Z,31.35
2018-06-21T11:11:50.917Z,31.80
2018-06-21T11:16:46.520Z,31.70
2018-06-21T11:21:41.056Z,31.06
2018-06-21T11:26:35.659Z,30.98
2018-06-21T11:31:30.512Z,31.32
2018-06-21T11:36:25.238Z,31.55
2018-06-21T11:41:19.636Z,31.86
2018-06-21T11:46:14.088Z,31.53
2018-06-21T11:51:08.525Z,31.27
2018-06-21T11:56:03.352Z,31.32
2018-06-21T12:00:58.663Z,31.46
2018-06-21T12:05:53.695Z,31.31
2018-06-21T12:10:49.718Z,31.18
2018-06-21T12:15:45.447Z,31.32
2018-06-21T12:20:40.006Z,31.48
2018-06-21T12:25:34.832Z,31.74
2018-06-21T12:30:29.756Z,32.13
2018-06-21T12:35:25.090Z,31.99
2018-06-21T12:40:20.634Z,32.07
2018-06-21T12:45:15.053Z,32.11
2018-06-21T12:50:09.482Z,31.94
2018-06-21T12:55:04.365Z,32.01
2018-06-21T12:59:59.668Z,32.06
2018-06-21T13:04:54.555Z,31.31
2018-06-21T13:10:06.360Z,30.88
2018-06-21T13:15:02.265Z,30.74
2018-06-21T13:19:57.767Z,30.35
2018-06-21T13:24:53.357Z,30.32
2018-06-21T13:29:49.081Z,30.61
2018-06-21T13:34:44.574Z,30.70
2018-06-21T13:39:46.723Z,30.82
2018-06-21T13:44:42.434Z,30.97
2018-06-21T13:49:46.018Z,30.27
2018-06-21T13:54:41.190Z,29.99
2018-06-21T13:59:35.666Z,29.79
2018-06-21T14:04:30.130Z,29.26
2018-06-21T14:09:27.553Z,29.34
2018-06-21T14:14:22.005Z,29.69
2018-06-21T14:19:16.540Z,29.43
2018-06-21T14:24:12.855Z,28.96
2018-06-21T14:29:08.020Z,28.79
2018-06-21T14:34:02.477Z,28.67
2018-06-21T14:38:57.133Z,28.63
2018-06-21T14:43:51.588Z,28.98
2018-06-21T14:48:46.099Z,29.38
2018-06-21T14:53:46.256Z,28.88
2018-06-21T14:58:41.548Z,28.60
2018-06-21T15:03:36.023Z,28.72
2018-06-21T15:08:30.486Z,28.67
2018-06-21T15:13:24.921Z,28.77
2018-06-21T15:18:19.800Z,28.95
2018-06-21T15:23:14.311Z,28.30
2018-06-21T15:28:08.688Z,28.24
2018-06-21T15:33:03.168Z,27.98
2018-06-21T15:37:57.721Z,27.97
2018-06-21T15:42:52.223Z,27.70
2018-06-21T15:47:46.802Z,27.83
2018-06-21T15:52:41.038Z,27.70
2018-06-21T15:57:36.318Z,27.92
2018-06-21T16:02:31.241Z,27.82
2018-06-21T16:07:26.004Z,28.00
2018-06-21T16:12:20.608Z,27.78
2018-06-21T16:17:23.127Z,27.85
2018-06-21T16:22:17.704Z,27.75
2018-06-21T16:27:12.298Z,27.52
2018-06-21T16:32:06.992Z,27.30
2018-06-21T16:37:01.656Z,27.16
2018-06-21T16:41:56.224Z,27.32
2018-06-21T16:46:50.764Z,27.10
2018-06-21T16:51:45.260Z,27.03
2018-06-21T16:56:39.903Z,27.01
2018-06-21T17:01:35.423Z,27.03
2018-06-21T17:11:36.481Z,26.72
2018-06-21T17:16:31.057Z,26.46
2018-06-21T17:21:25.600Z,26.47
2018-06-21T17:26:20.218Z,26.34
2018-06-21T17:31:14.773Z,26.14
2018-06-21T17:36:09.386Z,26.13
2018-06-21T17:41:04.047Z,25.61
2018-06-21T17:45:58.724Z,25.34
2018-06-21T17:50:53.262Z,25.30
2018-06-21T17:55:47.962Z,25.21
2018-06-21T18:00:42.747Z,25.01
2018-06-21T18:05:37.500Z,25.02
2018-06-21T18:10:32.115Z,24.82
2018-06-21T18:15:26.813Z,24.74
2018-06-21T18:20:21.422Z,24.42
2018-06-21T18:25:16.757Z,24.15
2018-06-21T18:30:11.567Z,24.04
2018-06-21T18:35:06.156Z,23.89
2018-06-21T18:40:00.877Z,23.80
2018-06-21T18:44:55.561Z,23.82
2018-06-21T18:49:50.334Z,23.71
2018-06-21T18:54:44.905Z,23.52
2018-06-21T18:59:39.476Z,23.39
2018-06-21T19:04:34.063Z,23.42
2018-06-21T19:09:33.760Z,23.36
2018-06-21T19:14:34.949Z,23.11
2018-06-21T19:19:29.611Z,23.02
2018-06-21T19:24:24.066Z,22.87
2018-06-21T19:29:18.663Z,22.89
2018-06-21T19:34:13.249Z,22.89
2018-06-21T19:39:10.560Z,22.85
2018-06-21T19:44:06.009Z,22.69
2018-06-21T19:49:00.707Z,22.52
2018-06-21T19:53:55.913Z,22.31
2018-06-21T19:58:50.809Z,22.19
2018-06-21T20:03:45.717Z,22.04
2018-06-21T20:08:40.240Z,21.92
2018-06-21T20:13:45.347Z,21.77
2018-06-21T20:18:39.994Z,21.71
2018-06-21T20:23:34.597Z,21.67
2018-06-21T20:28:29.292Z,21.63
2018-06-21T20:33:23.964Z,21.52
2018-06-21T20:38:22.372Z,21.46
2018-06-21T20:43:16.926Z,21.38
2018-06-21T20:48:11.441Z,21.37
2018-06-21T20:53:06.033Z,21.38
2018-06-21T20:58:00.680Z,21.31
2018-06-21T21:02:55.252Z,21.10
2018-06-21T21:07:53.135Z,21.07
2018-06-21T21:12:47.769Z,21.01
2018-06-21T21:17:42.673Z,20.98
2018-06-21T21:22:38.496Z,20.91
2018-06-21T21:27:33.086Z,20.71
2018-06-21T21:32:27.952Z,20.48
2018-06-21T21:37:22.933Z,20.20
2018-06-21T21:42:17.968Z,19.87
2018-06-21T21:47:12.514Z,19.48
2018-06-21T21:52:07.171Z,19.31
2018-06-21T21:57:01.876Z,19.08
2018-06-21T22:01:56.573Z,19.00
2018-06-21T22:06:51.096Z,18.88
2018-06-21T22:11:45.645Z,18.83
2018-06-21T22:16:40.227Z,18.58
2018-06-21T22:21:34.784Z,18.42
2018-06-21T22:26:29.228Z,18.31
2018-06-21T22:31:23.745Z,18.26
2018-06-21T22:36:18.293Z,17.92
2018-06-21T22:41:12.841Z,17.94
2018-06-21T22:46:08.170Z,18.02
2018-06-21T22:51:02.639Z,17.80
2018-06-21T22:55:57.128Z,17.62
2018-06-21T23:00:51.617Z,17.60
2018-06-21T23:05:46.159Z,17.59
2018-06-21T23:10:40.737Z,17.49
2018-06-21T23:15:35.067Z,17.44
2018-06-21T23:20:29.540Z,17.43
2018-06-21T23:25:24.117Z,17.32
2018-06-21T23:30:18.578Z,17.24
2018-06-21T23:35:13.153Z,17.29
2018-06-21T23:40:07.674Z,17.15
2018-06-21T23:45:02.147Z,17.08
2018-06-21T23:49:56.689Z,16.86
2018-06-21T23:54:51.206Z,16.72
2018-06-21T23:59:45.737Z,16.72
